アシガバート の空港の天気 - METARとTAF

アシガバート空港 ( UTAA / ASB ) - トルクメニスタン アシガバート
飛行場実況気象(Metar)
観測時間10/22 16:00 TMT (10/22 11:00 UTC)
風向・風速東南東 3m/s
視程10km以上
天気現象
少しの雲 雲底高度 1490m
全天の8割程度の雲 雲底高度 3020m
気温19℃
湿度32%
気圧1023hPa
METARUTAA 221100Z 12006KT 080V150 9999 FEW049 BKN099 19/02 Q1023 R88/CLRD70 NOSIG
過去の天気等 Google飛行場航空写真 Wunderground天気予報

過去48時間のMETAR

飛行場予報(TAF)
発表時間: 10/22 15:43 TMT (10/22 10:43 UTC)
予報対象時間: 22日17時 TMT ~ 23日17時 TMT
風向・風速東南東 8m/s
視程6000m
全天の4割程度の雲 雲底高度 910m
全天の4割程度の積乱雲 雲底高度 1520m
22日17時 TMT ~ 22日20時 TMT に一時的に
風向・風速東北東 7m/s
22日21時 TMT ~ 22日23時 TMT に徐々に
風向・風速南 5m/s
23日8時 TMT ~ 23日10時 TMT に徐々に
風向・風速東 8m/s
TAF UTAA 221043Z 2212/2312 12016KT 6000 SCT030 SCT050CB
TEMPO 2212/2215 06014KT
BECMG 2216/2218 18010KT
BECMG 2303/2305 09016KT